SHT9E EGLL-EGPH
Flight info
| Callsign | SHT9E |
|---|---|
| Flight time | N/A |
| Altitude | 32000 |
| Route | ULTIB T420 TNT UN57 POL UN601 RIBEL DCT INPIP |
| Aircraft | A321/M-SDE3FGHIRWY/LB1 |
Departure
| Time | 2026-05-01 14:47 |
|---|---|
| Airport | London Heathrow Airport (EGLL) |
Arrival
| Time | N/A |
|---|---|
| Airport | Edinburgh Airport (EGPH) |
| Time | Latitude | Longitude | Altitude | Speed | Heading |
|---|---|---|---|---|---|
| 2026-05-01 13:55 | 51.46927 | -0.48573 | 87 ft | 0 kts | 360° |
| 2026-05-01 14:28 | 51.46921 | -0.48573 | 86 ft | 4 kts | 2° |
| 2026-05-01 14:29 | 51.46895 | -0.48581 | 91 ft | 4 kts | 31° |
| 2026-05-01 14:29 | 51.46879 | -0.48608 | 88 ft | 4 kts | 78° |
| 2026-05-01 14:30 | 51.46877 | -0.48621 | 87 ft | 0 kts | 89° |
| 2026-05-01 14:34 | 51.46877 | -0.48618 | 88 ft | 2 kts | 89° |
| 2026-05-01 14:34 | 51.46877 | -0.48574 | 88 ft | 6 kts | 89° |
| 2026-05-01 14:35 | 51.46878 | -0.48524 | 86 ft | 1 kts | 91° |
| 2026-05-01 14:35 | 51.46876 | -0.48496 | 90 ft | 4 kts | 99° |
| 2026-05-01 14:35 | 51.46849 | -0.48468 | 87 ft | 5 kts | 180° |
| 2026-05-01 14:35 | 51.46819 | -0.48469 | 86 ft | 1 kts | 180° |
| 2026-05-01 14:36 | 51.46809 | -0.48469 | 86 ft | 0 kts | 180° |
| 2026-05-01 14:36 | 51.46806 | -0.48469 | 86 ft | 0 kts | 180° |
| 2026-05-01 14:36 | 51.46790 | -0.48469 | 86 ft | 4 kts | 180° |
| 2026-05-01 14:37 | 51.46785 | -0.48469 | 86 ft | 1 kts | 180° |
| 2026-05-01 14:37 | 51.46778 | -0.48469 | 86 ft | 2 kts | 180° |
| 2026-05-01 14:37 | 51.46766 | -0.48469 | 86 ft | 1 kts | 180° |
| 2026-05-01 14:38 | 51.46759 | -0.48469 | 86 ft | 3 kts | 179° |
| 2026-05-01 14:38 | 51.46757 | -0.48469 | 86 ft | 0 kts | 179° |
| 2026-05-01 14:39 | 51.46755 | -0.48469 | 86 ft | 1 kts | 179° |
| 2026-05-01 14:40 | 51.46733 | -0.48469 | 88 ft | 5 kts | 179° |
| 2026-05-01 14:40 | 51.46689 | -0.48468 | 86 ft | 7 kts | 179° |
| 2026-05-01 14:40 | 51.46652 | -0.48425 | 90 ft | 9 kts | 103° |
| 2026-05-01 14:40 | 51.46653 | -0.48310 | 86 ft | 12 kts | 89° |
| 2026-05-01 14:41 | 51.46654 | -0.48157 | 86 ft | 15 kts | 90° |
| 2026-05-01 14:41 | 51.46652 | -0.47970 | 86 ft | 19 kts | 90° |
| 2026-05-01 14:41 | 51.46654 | -0.47744 | 86 ft | 22 kts | 88° |
| 2026-05-01 14:41 | 51.46655 | -0.47487 | 86 ft | 24 kts | 90° |
| 2026-05-01 14:42 | 51.46656 | -0.47201 | 88 ft | 27 kts | 90° |
| 2026-05-01 14:42 | 51.46657 | -0.46888 | 90 ft | 29 kts | 90° |
| 2026-05-01 14:42 | 51.46657 | -0.46551 | 89 ft | 31 kts | 90° |
| 2026-05-01 14:42 | 51.46657 | -0.46191 | 90 ft | 33 kts | 89° |
| 2026-05-01 14:43 | 51.46667 | -0.45810 | 86 ft | 35 kts | 87° |
| 2026-05-01 14:43 | 51.46663 | -0.45481 | 86 ft | 25 kts | 91° |
| 2026-05-01 14:43 | 51.46663 | -0.45191 | 86 ft | 26 kts | 89° |
| 2026-05-01 14:43 | 51.46663 | -0.44904 | 87 ft | 27 kts | 89° |
| 2026-05-01 14:44 | 51.46664 | -0.44610 | 87 ft | 27 kts | 89° |
| 2026-05-01 14:44 | 51.46666 | -0.44254 | 86 ft | 16 kts | 89° |
| 2026-05-01 14:44 | 51.46666 | -0.44082 | 86 ft | 16 kts | 90° |
| 2026-05-01 14:45 | 51.46667 | -0.43893 | 86 ft | 13 kts | 90° |
| 2026-05-01 14:45 | 51.46587 | -0.43828 | 86 ft | 9 kts | 181° |
| 2026-05-01 14:45 | 51.46520 | -0.43830 | 85 ft | 8 kts | 181° |
| 2026-05-01 14:46 | 51.46492 | -0.43869 | 87 ft | 7 kts | 265° |
| 2026-05-01 14:46 | 51.46491 | -0.44558 | 88 ft | 91 kts | 269° |
| 2026-05-01 14:46 | 51.46486 | -0.45949 | 88 ft | 155 kts | 270° |
| 2026-05-01 14:47 | 51.46488 | -0.47845 | 440 ft | 178 kts | 265° |
| 2026-05-01 14:47 | 51.46484 | -0.49853 | 1263 ft | 180 kts | 266° |
| 2026-05-01 14:47 | 51.46524 | -0.51851 | 2060 ft | 178 kts | 269° |
| 2026-05-01 14:48 | 51.46844 | -0.55860 | 2878 ft | 179 kts | 261° |
| 2026-05-01 14:48 | 51.46734 | -0.57859 | 3363 ft | 182 kts | 266° |
| 2026-05-01 14:48 | 51.47775 | -0.61626 | 4173 ft | 199 kts | 314° |
| 2026-05-01 14:49 | 51.50106 | -0.64129 | 5276 ft | 203 kts | 325° |
| 2026-05-01 14:49 | 51.52580 | -0.66545 | 6166 ft | 221 kts | 325° |
| 2026-05-01 14:50 | 51.55267 | -0.68036 | 6283 ft | 275 kts | 350° |
| 2026-05-01 14:50 | 51.59892 | -0.68592 | 5901 ft | 288 kts | 355° |
| 2026-05-01 14:51 | 51.61890 | -0.68839 | 5962 ft | 289 kts | 354° |
| 2026-05-01 14:51 | 51.65905 | -0.68779 | 6724 ft | 292 kts | 18° |
| 2026-05-01 14:52 | 51.69227 | -0.65210 | 8307 ft | 294 kts | 51° |
| 2026-05-01 14:52 | 51.70511 | -0.62642 | 8975 ft | 301 kts | 55° |
| 2026-05-01 14:52 | 51.73099 | -0.57210 | 10454 ft | 309 kts | 56° |
| 2026-05-01 14:53 | 51.74401 | -0.54447 | 11219 ft | 310 kts | 56° |
| 2026-05-01 14:53 | 51.75756 | -0.51613 | 11586 ft | 329 kts | 55° |
| 2026-05-01 14:53 | 51.77327 | -0.48746 | 11779 ft | 353 kts | 42° |
| 2026-05-01 14:53 | 51.79469 | -0.46702 | 12295 ft | 365 kts | 22° |
| 2026-05-01 14:54 | 51.81962 | -0.45823 | 12947 ft | 370 kts | 2° |
| 2026-05-01 14:54 | 51.84523 | -0.46268 | 13586 ft | 373 kts | 342° |
| 2026-05-01 14:54 | 51.86873 | -0.48022 | 14170 ft | 374 kts | 327° |
| 2026-05-01 14:54 | 51.89118 | -0.50193 | 14748 ft | 378 kts | 326° |
| 2026-05-01 14:55 | 51.91378 | -0.52408 | 15335 ft | 381 kts | 326° |
| 2026-05-01 14:55 | 51.93655 | -0.54649 | 15921 ft | 385 kts | 326° |
| 2026-05-01 14:55 | 51.95958 | -0.56909 | 16517 ft | 388 kts | 326° |
| 2026-05-01 14:55 | 51.98282 | -0.59187 | 17101 ft | 392 kts | 326° |
| 2026-05-01 14:56 | 52.00627 | -0.61483 | 17662 ft | 396 kts | 326° |
| 2026-05-01 14:56 | 52.02994 | -0.63800 | 18258 ft | 399 kts | 326° |
| 2026-05-01 14:56 | 52.05377 | -0.66137 | 18750 ft | 402 kts | 326° |
| 2026-05-01 14:56 | 52.07785 | -0.68502 | 19255 ft | 405 kts | 326° |
| 2026-05-01 14:57 | 52.10207 | -0.70883 | 19757 ft | 408 kts | 326° |
| 2026-05-01 14:57 | 52.15056 | -0.75658 | 20390 ft | 412 kts | 326° |
| 2026-05-01 14:57 | 52.17522 | -0.78092 | 20911 ft | 415 kts | 326° |
| 2026-05-01 14:58 | 52.19996 | -0.80539 | 21385 ft | 418 kts | 326° |
| 2026-05-01 14:58 | 52.22483 | -0.83001 | 21871 ft | 420 kts | 326° |
| 2026-05-01 14:58 | 52.24994 | -0.85491 | 22347 ft | 423 kts | 326° |
| 2026-05-01 14:58 | 52.27520 | -0.88000 | 22807 ft | 426 kts | 326° |
| 2026-05-01 14:59 | 52.30058 | -0.90523 | 23262 ft | 429 kts | 326° |
| 2026-05-01 14:59 | 52.32616 | -0.93069 | 23712 ft | 431 kts | 326° |
| 2026-05-01 14:59 | 52.35187 | -0.95630 | 24099 ft | 434 kts | 326° |
| 2026-05-01 14:59 | 52.37770 | -0.98211 | 24493 ft | 436 kts | 326° |
| 2026-05-01 15:00 | 52.42962 | -1.03398 | 25355 ft | 438 kts | 326° |
| 2026-05-01 15:00 | 52.45566 | -1.06007 | 25772 ft | 440 kts | 326° |
| 2026-05-01 15:00 | 52.48187 | -1.08634 | 26175 ft | 442 kts | 326° |
| 2026-05-01 15:01 | 52.50818 | -1.11275 | 26575 ft | 444 kts | 326° |
| 2026-05-01 15:01 | 52.53454 | -1.13929 | 26971 ft | 446 kts | 326° |
| 2026-05-01 15:01 | 52.56112 | -1.16609 | 27362 ft | 448 kts | 326° |
| 2026-05-01 15:01 | 52.58776 | -1.19294 | 27743 ft | 450 kts | 326° |
| 2026-05-01 15:02 | 52.61450 | -1.21993 | 28128 ft | 452 kts | 326° |
| 2026-05-01 15:02 | 52.63231 | -1.23792 | 28364 ft | 453 kts | 326° |
| 2026-05-01 15:02 | 52.66800 | -1.27409 | 28839 ft | 456 kts | 326° |
| 2026-05-01 15:02 | 52.69510 | -1.30165 | 29199 ft | 459 kts | 326° |
| 2026-05-01 15:03 | 52.72238 | -1.32939 | 29567 ft | 461 kts | 326° |
| 2026-05-01 15:03 | 52.74971 | -1.35720 | 29857 ft | 463 kts | 326° |
| 2026-05-01 15:03 | 52.77719 | -1.38515 | 30229 ft | 464 kts | 325° |
| 2026-05-01 15:03 | 52.80472 | -1.41319 | 30538 ft | 466 kts | 325° |
| 2026-05-01 15:04 | 52.83235 | -1.44141 | 30828 ft | 467 kts | 325° |
| 2026-05-01 15:04 | 52.86001 | -1.46974 | 31111 ft | 469 kts | 325° |
| 2026-05-01 15:04 | 52.88777 | -1.49827 | 31378 ft | 470 kts | 325° |
| 2026-05-01 15:04 | 52.91557 | -1.52688 | 31642 ft | 472 kts | 325° |
| 2026-05-01 15:05 | 52.94366 | -1.55578 | 31867 ft | 474 kts | 325° |
| 2026-05-01 15:05 | 52.97172 | -1.58470 | 32096 ft | 474 kts | 325° |
| 2026-05-01 15:05 | 52.99931 | -1.61318 | 32143 ft | 459 kts | 325° |
| 2026-05-01 15:05 | 53.02601 | -1.64079 | 32121 ft | 446 kts | 325° |
| 2026-05-01 15:06 | 53.05267 | -1.66686 | 32139 ft | 444 kts | 331° |
| 2026-05-01 15:06 | 53.11025 | -1.70470 | 32133 ft | 445 kts | 337° |
| 2026-05-01 15:07 | 53.16823 | -1.74056 | 32131 ft | 445 kts | 337° |
| 2026-05-01 15:07 | 53.22584 | -1.77634 | 32129 ft | 445 kts | 337° |
| 2026-05-01 15:08 | 53.28372 | -1.81252 | 32138 ft | 444 kts | 337° |
| 2026-05-01 15:08 | 53.34155 | -1.84879 | 32141 ft | 444 kts | 337° |
| 2026-05-01 15:09 | 53.39931 | -1.88502 | 32149 ft | 443 kts | 337° |
| 2026-05-01 15:09 | 53.45704 | -1.92125 | 32137 ft | 443 kts | 337° |
| 2026-05-01 15:10 | 53.51478 | -1.95760 | 32137 ft | 443 kts | 337° |
| 2026-05-01 15:10 | 53.60125 | -2.01238 | 32133 ft | 443 kts | 337° |
| 2026-05-01 15:11 | 53.68776 | -2.06737 | 32142 ft | 443 kts | 337° |
| 2026-05-01 15:12 | 53.74546 | -2.10429 | 32167 ft | 443 kts | 337° |
| 2026-05-01 15:12 | 53.83141 | -2.16226 | 32144 ft | 443 kts | 335° |
| 2026-05-01 15:14 | 53.97430 | -2.26096 | 32146 ft | 443 kts | 335° |
| 2026-05-01 15:14 | 54.05979 | -2.31974 | 32152 ft | 443 kts | 335° |
| 2026-05-01 15:15 | 54.17397 | -2.39877 | 32148 ft | 442 kts | 335° |
| 2026-05-01 15:16 | 54.28794 | -2.47814 | 32146 ft | 442 kts | 335° |
| 2026-05-01 15:18 | 54.43015 | -2.57793 | 32135 ft | 441 kts | 335° |
| 2026-05-01 15:19 | 54.54330 | -2.65779 | 31670 ft | 440 kts | 335° |
| 2026-05-01 15:19 | 54.59947 | -2.69749 | 30698 ft | 433 kts | 335° |
| 2026-05-01 15:19 | 54.62731 | -2.71724 | 30200 ft | 430 kts | 335° |
| 2026-05-01 15:20 | 54.68206 | -2.75634 | 29240 ft | 420 kts | 335° |
| 2026-05-01 15:20 | 54.70894 | -2.77559 | 28790 ft | 415 kts | 335° |
| 2026-05-01 15:20 | 54.73549 | -2.79463 | 28360 ft | 410 kts | 335° |
| 2026-05-01 15:21 | 54.76178 | -2.81345 | 27926 ft | 406 kts | 335° |
| 2026-05-01 15:21 | 54.78776 | -2.83203 | 27521 ft | 402 kts | 335° |
| 2026-05-01 15:21 | 54.81347 | -2.85045 | 27111 ft | 397 kts | 335° |
| 2026-05-01 15:21 | 54.83885 | -2.86868 | 26715 ft | 393 kts | 335° |
| 2026-05-01 15:22 | 54.88892 | -2.90482 | 25974 ft | 393 kts | 334° |
| 2026-05-01 15:22 | 54.91411 | -2.92312 | 25288 ft | 400 kts | 334° |
| 2026-05-01 15:22 | 54.93984 | -2.94184 | 24737 ft | 400 kts | 334° |
| 2026-05-01 15:23 | 54.96551 | -2.96047 | 24178 ft | 400 kts | 335° |
| 2026-05-01 15:23 | 54.99120 | -2.97912 | 23607 ft | 400 kts | 335° |
| 2026-05-01 15:23 | 55.01684 | -2.99771 | 22997 ft | 398 kts | 335° |
| 2026-05-01 15:23 | 55.04238 | -3.01622 | 22446 ft | 396 kts | 335° |
| 2026-05-01 15:24 | 55.06777 | -3.03460 | 21892 ft | 393 kts | 335° |
| 2026-05-01 15:24 | 55.09294 | -3.05284 | 21344 ft | 391 kts | 335° |
| 2026-05-01 15:24 | 55.11799 | -3.07111 | 20776 ft | 389 kts | 335° |
| 2026-05-01 15:24 | 55.14285 | -3.08934 | 20284 ft | 385 kts | 335° |
| 2026-05-01 15:25 | 55.16727 | -3.10728 | 19807 ft | 380 kts | 335° |
| 2026-05-01 15:25 | 55.19166 | -3.12521 | 19288 ft | 379 kts | 335° |
| 2026-05-01 15:25 | 55.21577 | -3.14293 | 18811 ft | 375 kts | 335° |
| 2026-05-01 15:25 | 55.23969 | -3.16050 | 18487 ft | 368 kts | 334° |
| 2026-05-01 15:26 | 55.26288 | -3.17750 | 18191 ft | 355 kts | 334° |
| 2026-05-01 15:26 | 55.28566 | -3.19340 | 17519 ft | 351 kts | 340° |
| 2026-05-01 15:26 | 55.30940 | -3.20188 | 16962 ft | 347 kts | 354° |
| 2026-05-01 15:26 | 55.33349 | -3.20205 | 16513 ft | 346 kts | 1° |
| 2026-05-01 15:27 | 55.35718 | -3.20055 | 16095 ft | 344 kts | 1° |
| 2026-05-01 15:27 | 55.38113 | -3.19911 | 15664 ft | 343 kts | 1° |
| 2026-05-01 15:27 | 55.40490 | -3.19775 | 15232 ft | 341 kts | 0° |
| 2026-05-01 15:28 | 55.45222 | -3.19505 | 14373 ft | 339 kts | 0° |
| 2026-05-01 15:28 | 55.47577 | -3.19370 | 13937 ft | 338 kts | 0° |
| 2026-05-01 15:28 | 55.49927 | -3.19234 | 13496 ft | 338 kts | 0° |
| 2026-05-01 15:29 | 55.54599 | -3.18962 | 12755 ft | 332 kts | 0° |
| 2026-05-01 15:29 | 55.56912 | -3.18830 | 12296 ft | 333 kts | 0° |
| 2026-05-01 15:29 | 55.61517 | -3.18557 | 11421 ft | 330 kts | 0° |
| 2026-05-01 15:30 | 55.65233 | -3.18331 | 11170 ft | 312 kts | 0° |
| 2026-05-01 15:31 | 55.73760 | -3.14923 | 10124 ft | 290 kts | 28° |
| 2026-05-01 15:31 | 55.77322 | -3.11728 | 9437 ft | 287 kts | 27° |
| 2026-05-01 15:32 | 55.80852 | -3.08564 | 8792 ft | 282 kts | 27° |
| 2026-05-01 15:32 | 55.84323 | -3.05457 | 8157 ft | 277 kts | 25° |
| 2026-05-01 15:33 | 55.89872 | -3.03265 | 7214 ft | 270 kts | 8° |
| 2026-05-01 15:34 | 55.94855 | -3.01860 | 6292 ft | 277 kts | 356° |